createdAt,value
2023-02-27T00:00:24.810Z,0.30
2023-02-27T00:02:51.991Z,0.30
2023-02-27T00:05:19.767Z,0.30
2023-02-27T00:07:46.490Z,0.30
2023-02-27T00:10:13.814Z,0.30
2023-02-27T00:12:40.515Z,0.20
2023-02-27T00:15:08.341Z,0.30
2023-02-27T00:17:35.553Z,0.20
2023-02-27T00:20:02.308Z,0.30
2023-02-27T00:22:29.124Z,0.30
2023-02-27T00:24:56.008Z,0.30
2023-02-27T00:27:23.115Z,0.30
2023-02-27T00:29:50.716Z,0.30
2023-02-27T00:32:18.960Z,0.20
2023-02-27T00:34:47.308Z,0.30
2023-02-27T00:37:14.216Z,0.20
2023-02-27T00:39:40.863Z,0.20
2023-02-27T00:42:07.880Z,0.20
2023-02-27T00:44:34.562Z,0.20
2023-02-27T00:47:01.318Z,0.20
2023-02-27T00:49:28.225Z,0.20
2023-02-27T00:51:54.920Z,0.20
2023-02-27T00:54:22.103Z,0.20
2023-02-27T00:56:48.876Z,0.10
2023-02-27T00:59:15.652Z,0.10
2023-02-27T01:01:44.380Z,0.10
2023-02-27T01:04:11.314Z,0.00
2023-02-27T01:06:37.998Z,0.00
2023-02-27T01:09:05.374Z,0.00
2023-02-27T01:11:32.384Z,0.00
2023-02-27T01:14:00.183Z,0.00
2023-02-27T01:16:26.994Z,0.00
2023-02-27T01:18:54.160Z,0.00
2023-02-27T01:21:23.454Z,-0.10
2023-02-27T01:23:50.301Z,-0.10
2023-02-27T01:26:19.274Z,-0.10
2023-02-27T01:28:46.279Z,-0.10
2023-02-27T01:31:13.765Z,-0.10
2023-02-27T01:33:40.670Z,-0.10
2023-02-27T01:36:07.620Z,-0.10
2023-02-27T01:38:34.395Z,-0.10
2023-02-27T01:41:01.504Z,-0.10
2023-02-27T01:43:28.641Z,-0.20
2023-02-27T01:45:55.716Z,-0.20
2023-02-27T01:48:30.523Z,-0.20
2023-02-27T01:51:15.535Z,-0.20
2023-02-27T01:53:44.249Z,-0.20
2023-02-27T01:56:17.921Z,-0.20
2023-02-27T01:58:45.884Z,-0.30
2023-02-27T02:01:12.744Z,-0.30
2023-02-27T02:03:39.443Z,-0.30
2023-02-27T02:06:07.206Z,-0.30
2023-02-27T02:08:38.305Z,-0.30
2023-02-27T02:11:05.757Z,-0.30
2023-02-27T02:13:32.583Z,-0.40
2023-02-27T02:16:02.337Z,-0.40
2023-02-27T02:18:35.357Z,-0.40
2023-02-27T02:21:12.760Z,-0.40
2023-02-27T02:23:58.449Z,-0.50
2023-02-27T02:26:34.349Z,-0.50
2023-02-27T02:29:20.244Z,-0.50
2023-02-27T02:31:47.267Z,-0.60
2023-02-27T02:34:26.408Z,-0.60
2023-02-27T02:36:56.182Z,-0.70
2023-02-27T02:39:25.954Z,-0.70
2023-02-27T02:42:03.930Z,-0.70
2023-02-27T02:44:40.736Z,-0.70
2023-02-27T02:47:16.842Z,-0.80
2023-02-27T02:50:11.021Z,-0.80
2023-02-27T02:52:48.900Z,-0.80
2023-02-27T02:55:23.599Z,-0.80
2023-02-27T02:57:57.252Z,-0.80
2023-02-27T03:00:28.788Z,-0.90
2023-02-27T03:03:02.245Z,-0.90
2023-02-27T03:05:38.366Z,-0.90
2023-02-27T03:08:08.744Z,-0.90
2023-02-27T03:10:43.127Z,-0.90
2023-02-27T03:13:32.879Z,-0.90
2023-02-27T03:16:04.723Z,-0.90
2023-02-27T03:18:34.870Z,-0.90
2023-02-27T03:21:05.924Z,-1.00
2023-02-27T03:23:35.886Z,-1.00
2023-02-27T03:26:04.816Z,-1.00
2023-02-27T03:28:34.099Z,-1.10
2023-02-27T03:31:24.194Z,-1.10
2023-02-27T03:33:56.959Z,-1.20
2023-02-27T03:36:43.530Z,-1.20
2023-02-27T03:39:28.748Z,-1.20
2023-02-27T03:41:55.411Z,-1.30
2023-02-27T03:44:44.089Z,-1.30
2023-02-27T03:47:11.036Z,-1.30
2023-02-27T03:49:38.516Z,-1.30
2023-02-27T03:52:05.887Z,-1.30
2023-02-27T03:54:36.320Z,-1.20
2023-02-27T03:57:07.065Z,-1.30
2023-02-27T03:59:34.119Z,-1.20
2023-02-27T04:02:01.766Z,-1.20
2023-02-27T04:04:31.889Z,-1.20
2023-02-27T04:07:29.601Z,-1.20
2023-02-27T04:10:08.525Z,-1.20
2023-02-27T04:12:41.444Z,-1.20
2023-02-27T04:15:20.818Z,-1.30
2023-02-27T04:17:56.089Z,-1.30
2023-02-27T04:20:29.303Z,-1.30
2023-02-27T04:23:05.400Z,-1.30
2023-02-27T04:25:51.321Z,-1.30
2023-02-27T04:28:37.021Z,-1.30
2023-02-27T04:31:08.521Z,-1.30
2023-02-27T04:33:35.256Z,-1.40
2023-02-27T04:36:07.008Z,-1.40
2023-02-27T04:38:37.652Z,-1.40
2023-02-27T04:41:11.800Z,-1.40
2023-02-27T04:43:39.919Z,-1.40
2023-02-27T04:46:08.760Z,-1.40
2023-02-27T04:48:38.837Z,-1.40
2023-02-27T04:51:19.969Z,-1.40
2023-02-27T04:53:58.664Z,-1.40
2023-02-27T04:56:30.666Z,-1.40
2023-02-27T04:58:59.765Z,-1.40
2023-02-27T05:01:33.379Z,-1.40
2023-02-27T05:04:01.608Z,-1.40
2023-02-27T05:06:30.665Z,-1.50
2023-02-27T05:09:16.212Z,-1.50
2023-02-27T05:12:01.539Z,-1.50
2023-02-27T05:14:33.992Z,-1.50
2023-02-27T05:17:04.712Z,-1.50
2023-02-27T05:19:32.649Z,-1.50
2023-02-27T05:22:13.107Z,-1.50
2023-02-27T05:25:02.606Z,-1.50
2023-02-27T05:27:41.344Z,-1.60
2023-02-27T05:30:31.901Z,-1.60
2023-02-27T05:33:03.377Z,-1.60
2023-02-27T05:35:41.591Z,-1.60
2023-02-27T05:38:11.599Z,-1.60
2023-02-27T05:40:42.228Z,-1.60
2023-02-27T05:43:15.001Z,-1.60
2023-02-27T05:45:43.418Z,-1.70
2023-02-27T05:48:26.397Z,-1.70
2023-02-27T05:50:53.749Z,-1.70
2023-02-27T05:53:21.605Z,-1.80
2023-02-27T05:55:53.606Z,-1.80
2023-02-27T05:58:20.538Z,-1.80
2023-02-27T06:00:50.573Z,-1.90
2023-02-27T06:03:17.705Z,-1.90
2023-02-27T06:05:44.708Z,-1.90
2023-02-27T06:08:11.991Z,-1.90
2023-02-27T06:10:38.929Z,-2.00
2023-02-27T06:13:05.852Z,-2.00
2023-02-27T06:15:32.563Z,-2.00
2023-02-27T06:17:59.404Z,-2.00
2023-02-27T06:20:26.094Z,-2.00
2023-02-27T06:22:53.102Z,-2.00
2023-02-27T06:25:21.946Z,-2.00
2023-02-27T06:27:48.683Z,-1.90
2023-02-27T06:30:15.613Z,-1.90
2023-02-27T06:32:42.492Z,-1.90
2023-02-27T06:35:09.556Z,-1.90
2023-02-27T06:37:36.340Z,-1.90
2023-02-27T06:40:06.183Z,-1.80
2023-02-27T06:42:32.994Z,-1.80
2023-02-27T06:44:59.950Z,-1.80
2023-02-27T06:47:26.805Z,-1.70
2023-02-27T06:49:53.502Z,-1.70
2023-02-27T06:52:20.297Z,-1.60
2023-02-27T06:54:47.048Z,-1.40
2023-02-27T06:57:14.054Z,-1.40
2023-02-27T06:59:41.855Z,-1.30
2023-02-27T07:02:10.454Z,-1.20
2023-02-27T07:04:37.205Z,-1.20
2023-02-27T07:07:35.268Z,-1.10
2023-02-27T07:09:50.690Z,-1.10
2023-02-27T07:12:17.404Z,-1.10
2023-02-27T07:14:44.179Z,-1.10
2023-02-27T07:17:10.992Z,-1.00
2023-02-27T07:19:37.852Z,-1.00
2023-02-27T07:22:05.081Z,-1.00
2023-02-27T07:24:31.916Z,-0.90
2023-02-27T07:26:58.494Z,-0.90
2023-02-27T07:29:25.298Z,-0.80
2023-02-27T07:31:51.929Z,-0.70
2023-02-27T07:34:18.708Z,-0.70
2023-02-27T07:36:45.344Z,-0.70
2023-02-27T07:39:12.557Z,-0.60
2023-02-27T07:41:39.296Z,-0.60
2023-02-27T07:44:08.450Z,-0.50
2023-02-27T07:46:35.456Z,-0.50
2023-02-27T07:49:02.353Z,-0.40
2023-02-27T07:51:29.422Z,-0.40
2023-02-27T07:53:58.249Z,-0.30
2023-02-27T07:56:25.686Z,-0.30
2023-02-27T07:58:52.480Z,-0.20
2023-02-27T08:01:19.288Z,-0.20
2023-02-27T08:03:45.933Z,-0.10
2023-02-27T08:06:12.702Z,0.00
2023-02-27T08:08:39.665Z,0.00
2023-02-27T08:11:06.508Z,0.10
2023-02-27T08:14:00.132Z,0.20
2023-02-27T08:16:19.850Z,0.20
2023-02-27T08:18:46.451Z,0.30
2023-02-27T08:21:13.215Z,0.40
2023-02-27T08:23:42.377Z,0.40
2023-02-27T08:26:09.485Z,0.50
2023-02-27T08:28:36.160Z,0.50
2023-02-27T08:31:03.123Z,0.50
2023-02-27T08:33:33.302Z,0.60
2023-02-27T08:36:00.000Z,0.70
2023-02-27T08:38:27.812Z,0.70
2023-02-27T08:40:54.846Z,0.80
2023-02-27T08:43:22.171Z,0.80
2023-02-27T08:45:49.799Z,0.80
2023-02-27T08:48:18.509Z,0.90
2023-02-27T08:50:46.305Z,1.00
2023-02-27T08:53:13.867Z,1.00
2023-02-27T08:55:40.542Z,1.10
2023-02-27T08:58:07.303Z,1.10
2023-02-27T09:00:34.173Z,1.10
2023-02-27T09:03:01.681Z,1.10
2023-02-27T09:05:28.566Z,1.20
2023-02-27T09:07:55.380Z,1.20
2023-02-27T09:10:22.646Z,1.20
2023-02-27T09:12:49.371Z,1.30
2023-02-27T09:15:16.223Z,1.40
2023-02-27T09:17:42.887Z,1.40
2023-02-27T09:20:10.636Z,1.40
2023-02-27T09:22:37.633Z,1.50
2023-02-27T09:25:04.785Z,1.60
2023-02-27T09:27:31.828Z,1.70
2023-02-27T09:29:59.264Z,1.70
2023-02-27T09:32:26.428Z,1.70
2023-02-27T09:34:53.748Z,1.80
2023-02-27T09:37:20.552Z,1.80
2023-02-27T09:39:47.403Z,1.90
2023-02-27T09:42:19.098Z,1.90
2023-02-27T09:44:47.614Z,2.00
2023-02-27T09:47:17.427Z,2.00
2023-02-27T09:49:56.530Z,2.10
2023-02-27T09:52:23.391Z,2.20
2023-02-27T09:54:50.478Z,2.30
2023-02-27T09:57:27.988Z,2.40
2023-02-27T10:00:02.091Z,2.50
2023-02-27T10:02:33.926Z,2.60
2023-02-27T10:05:07.758Z,2.70
2023-02-27T10:07:34.379Z,2.90
2023-02-27T10:10:01.430Z,2.90
2023-02-27T10:12:47.448Z,3.00
2023-02-27T10:15:18.145Z,3.00
2023-02-27T10:17:51.176Z,3.00
2023-02-27T10:20:27.933Z,3.00
2023-02-27T10:22:57.460Z,3.00
2023-02-27T10:25:31.769Z,3.00
2023-02-27T10:28:02.106Z,3.00
2023-02-27T10:30:34.612Z,2.90
2023-02-27T10:33:22.114Z,2.90
2023-02-27T10:35:51.992Z,2.90
2023-02-27T10:38:38.974Z,3.00
2023-02-27T10:41:06.149Z,3.10
2023-02-27T10:43:33.586Z,3.10
2023-02-27T10:46:06.598Z,3.30
2023-02-27T10:48:33.580Z,3.40
2023-02-27T10:51:20.270Z,3.50
2023-02-27T10:53:47.339Z,3.60
2023-02-27T10:56:20.848Z,3.70
2023-02-27T10:58:47.676Z,3.80
2023-02-27T11:01:14.473Z,3.90
2023-02-27T11:03:43.653Z,4.00
2023-02-27T11:06:24.930Z,4.00
2023-02-27T11:09:10.060Z,4.10
2023-02-27T11:11:36.845Z,4.10
2023-02-27T11:14:19.098Z,4.10
2023-02-27T11:16:49.448Z,4.10
2023-02-27T11:19:45.664Z,4.20
2023-02-27T11:22:17.443Z,4.20
2023-02-27T11:24:44.432Z,4.20
2023-02-27T11:27:37.467Z,4.20
2023-02-27T11:30:22.703Z,4.10
2023-02-27T11:32:49.913Z,4.00
2023-02-27T11:35:22.925Z,3.90
2023-02-27T11:37:51.006Z,3.90
2023-02-27T11:40:19.475Z,3.90
2023-02-27T11:42:55.571Z,3.90
2023-02-27T11:46:12.942Z,3.90
2023-02-27T11:48:25.087Z,4.00
2023-02-27T11:51:12.235Z,4.00
2023-02-27T11:54:05.168Z,4.10
2023-02-27T11:56:36.826Z,4.20
2023-02-27T11:59:06.725Z,4.20
2023-02-27T12:01:38.884Z,4.30
2023-02-27T12:04:17.116Z,4.40
2023-02-27T12:06:50.076Z,4.50
2023-02-27T12:09:22.862Z,4.60
2023-02-27T12:11:50.276Z,4.70
2023-02-27T12:14:36.070Z,4.80
2023-02-27T12:17:06.846Z,4.90
2023-02-27T12:19:45.971Z,4.90
2023-02-27T12:22:17.535Z,5.00
2023-02-27T12:24:47.645Z,4.90
2023-02-27T12:27:20.428Z,4.90
2023-02-27T12:30:16.933Z,5.00
2023-02-27T12:32:54.422Z,5.00
2023-02-27T12:35:28.154Z,5.00
2023-02-27T12:37:55.702Z,5.00
2023-02-27T12:40:28.767Z,5.00
2023-02-27T12:42:55.598Z,5.00
2023-02-27T12:45:22.233Z,5.00
2023-02-27T12:48:07.410Z,5.00
2023-02-27T12:50:43.206Z,5.00
2023-02-27T12:53:13.072Z,5.00
2023-02-27T12:55:42.417Z,5.10
2023-02-27T12:58:15.129Z,5.10
2023-02-27T13:00:51.035Z,5.10
2023-02-27T13:03:27.385Z,5.10
2023-02-27T13:06:23.634Z,5.10
2023-02-27T13:09:08.680Z,5.00
2023-02-27T13:11:40.113Z,4.90
2023-02-27T13:14:25.895Z,4.70
2023-02-27T13:16:58.737Z,4.70
2023-02-27T13:19:28.660Z,4.60
2023-02-27T13:22:01.927Z,4.60
2023-02-27T13:24:30.237Z,4.60
2023-02-27T13:27:00.066Z,4.70
2023-02-27T13:29:38.393Z,4.80
2023-02-27T13:32:16.558Z,4.90
2023-02-27T13:34:43.396Z,4.90
2023-02-27T13:37:10.115Z,4.90
2023-02-27T13:39:42.193Z,4.90
2023-02-27T13:42:27.419Z,4.80
2023-02-27T13:44:54.991Z,4.70
2023-02-27T13:47:38.517Z,4.70
2023-02-27T13:50:25.483Z,4.70
2023-02-27T13:52:52.249Z,4.70
2023-02-27T13:55:29.453Z,4.70
2023-02-27T13:57:57.468Z,4.70
2023-02-27T14:00:31.918Z,4.80
2023-02-27T14:03:06.386Z,4.90
2023-02-27T14:05:33.223Z,5.00
2023-02-27T14:07:59.899Z,5.10
2023-02-27T14:10:28.989Z,5.10
2023-02-27T14:12:57.575Z,5.10
2023-02-27T14:15:24.400Z,5.20
2023-02-27T14:18:02.375Z,5.20
2023-02-27T14:20:39.602Z,5.20
2023-02-27T14:23:15.481Z,5.20
2023-02-27T14:25:46.589Z,5.20
2023-02-27T14:28:31.507Z,5.20
2023-02-27T14:31:03.091Z,5.20
2023-02-27T14:33:40.606Z,5.20
2023-02-27T14:36:09.496Z,5.20
2023-02-27T14:38:38.213Z,5.20
2023-02-27T14:41:17.377Z,5.20
2023-02-27T14:43:45.327Z,5.20
2023-02-27T14:46:16.154Z,5.20
2023-02-27T14:48:43.006Z,5.20
2023-02-27T14:51:10.041Z,5.20
2023-02-27T14:53:36.956Z,5.30
2023-02-27T14:56:04.046Z,5.20
2023-02-27T14:58:30.793Z,5.20
2023-02-27T15:01:06.165Z,5.20
2023-02-27T15:03:38.962Z,5.30
2023-02-27T15:06:26.464Z,5.30
2023-02-27T15:08:54.492Z,5.40
2023-02-27T15:11:22.195Z,5.40
2023-02-27T15:13:53.309Z,5.40
2023-02-27T15:16:23.121Z,5.40
2023-02-27T15:18:55.765Z,5.30
2023-02-27T15:21:23.710Z,5.20
2023-02-27T15:23:57.819Z,5.20
2023-02-27T15:26:25.486Z,5.10
2023-02-27T15:28:52.825Z,5.10
2023-02-27T15:31:24.024Z,5.10
2023-02-27T15:33:51.296Z,5.00
2023-02-27T15:36:20.132Z,5.10
2023-02-27T15:38:46.804Z,5.10
2023-02-27T15:41:14.275Z,5.10
2023-02-27T15:43:41.451Z,5.00
2023-02-27T15:46:08.376Z,5.00
2023-02-27T15:48:35.389Z,5.00
2023-02-27T15:51:02.692Z,5.00
2023-02-27T15:53:33.837Z,4.90
2023-02-27T15:56:01.961Z,4.80
2023-02-27T15:58:29.929Z,4.80
2023-02-27T16:01:00.981Z,4.80
2023-02-27T16:03:36.034Z,4.80
2023-02-27T16:06:03.269Z,4.80
2023-02-27T16:08:30.926Z,4.80
2023-02-27T16:10:58.139Z,4.80
2023-02-27T16:13:25.075Z,4.80
2023-02-27T16:16:05.649Z,4.90
2023-02-27T16:18:35.339Z,4.90
2023-02-27T16:21:10.293Z,4.90
2023-02-27T16:23:37.355Z,4.80
2023-02-27T16:26:24.406Z,4.80
2023-02-27T16:29:04.967Z,4.80
2023-02-27T16:31:33.608Z,4.70
2023-02-27T16:34:01.608Z,4.70
2023-02-27T16:36:30.402Z,4.70
2023-02-27T16:38:57.298Z,4.60
2023-02-27T16:41:24.919Z,4.60
2023-02-27T16:43:52.745Z,4.60
2023-02-27T16:46:22.424Z,4.60
2023-02-27T16:48:56.374Z,4.50
2023-02-27T16:51:24.659Z,4.50
2023-02-27T16:53:51.887Z,4.50
2023-02-27T16:56:23.694Z,4.40
2023-02-27T16:58:55.978Z,4.40
2023-02-27T17:01:22.672Z,4.30
2023-02-27T17:03:49.449Z,4.30
2023-02-27T17:06:16.139Z,4.20
2023-02-27T17:08:43.973Z,4.20
2023-02-27T17:11:11.838Z,4.10
2023-02-27T17:13:38.684Z,4.10
2023-02-27T17:16:06.134Z,4.00
2023-02-27T17:18:33.612Z,4.00
2023-02-27T17:21:01.197Z,3.90
2023-02-27T17:23:28.048Z,3.90
2023-02-27T17:25:54.817Z,3.80
2023-02-27T17:28:22.284Z,3.80
2023-02-27T17:30:50.191Z,3.70
2023-02-27T17:33:17.482Z,3.70
2023-02-27T17:35:44.160Z,3.60
2023-02-27T17:38:10.980Z,3.50
2023-02-27T17:40:39.132Z,3.50
2023-02-27T17:43:05.937Z,3.50
2023-02-27T17:45:32.829Z,3.40
2023-02-27T17:47:59.710Z,3.40
2023-02-27T17:50:26.532Z,3.40
2023-02-27T17:52:53.225Z,3.30
2023-02-27T17:55:19.931Z,3.30
2023-02-27T17:57:46.669Z,3.20
2023-02-27T18:00:14.469Z,3.20
2023-02-27T18:02:43.347Z,3.20
2023-02-27T18:05:10.030Z,3.10
2023-02-27T18:07:36.723Z,3.20
2023-02-27T18:10:05.352Z,3.20
2023-02-27T18:12:32.426Z,3.20
2023-02-27T18:14:59.139Z,3.20
2023-02-27T18:17:25.854Z,3.20
2023-02-27T18:19:52.520Z,3.30
2023-02-27T18:22:21.627Z,3.30
2023-02-27T18:24:49.286Z,3.30
2023-02-27T18:27:16.087Z,3.40
2023-02-27T18:29:43.804Z,3.40
2023-02-27T18:32:10.688Z,3.40
2023-02-27T18:34:39.053Z,3.50
2023-02-27T18:37:05.958Z,3.50
2023-02-27T18:39:32.632Z,3.50
2023-02-27T18:41:59.402Z,3.50
2023-02-27T18:44:26.297Z,3.60
2023-02-27T18:46:53.060Z,3.60
2023-02-27T18:49:19.741Z,3.60
2023-02-27T18:51:46.405Z,3.60
2023-02-27T18:54:13.884Z,3.60
2023-02-27T18:56:40.953Z,3.60
2023-02-27T18:59:08.100Z,3.60
2023-02-27T19:01:36.167Z,3.60
2023-02-27T19:04:04.749Z,3.60
2023-02-27T19:06:42.059Z,3.60
2023-02-27T19:09:10.544Z,3.60
2023-02-27T19:11:38.129Z,3.60
2023-02-27T19:14:06.085Z,3.60
2023-02-27T19:16:33.253Z,3.60
2023-02-27T19:19:00.976Z,3.60
2023-02-27T19:21:28.147Z,3.60
2023-02-27T19:23:55.615Z,3.60
2023-02-27T19:26:23.671Z,3.60
2023-02-27T19:28:51.832Z,3.60
2023-02-27T19:31:18.680Z,3.60
2023-02-27T19:33:45.459Z,3.50
2023-02-27T19:36:14.234Z,3.50
2023-02-27T19:38:41.408Z,3.50
2023-02-27T19:41:09.562Z,3.50
2023-02-27T19:43:37.119Z,3.40
2023-02-27T19:46:08.259Z,3.40
2023-02-27T19:48:35.378Z,3.40
2023-02-27T19:51:03.260Z,3.30
2023-02-27T19:53:30.577Z,3.30
2023-02-27T19:56:01.345Z,3.30
2023-02-27T19:58:28.585Z,3.30
2023-02-27T20:00:55.873Z,3.30
2023-02-27T20:03:24.548Z,3.20
2023-02-27T20:05:51.803Z,3.20
2023-02-27T20:08:18.624Z,3.20
2023-02-27T20:10:58.341Z,3.20
2023-02-27T20:13:25.067Z,3.10
2023-02-27T20:15:57.880Z,3.10
2023-02-27T20:18:25.214Z,3.10
2023-02-27T20:21:01.160Z,3.10
2023-02-27T20:23:28.272Z,3.10
2023-02-27T20:25:55.301Z,3.00
2023-02-27T20:28:22.762Z,3.00
2023-02-27T20:30:49.941Z,3.00
2023-02-27T20:33:19.064Z,2.90
2023-02-27T20:35:45.797Z,2.90
2023-02-27T20:38:16.343Z,2.90
2023-02-27T20:40:43.321Z,2.90
2023-02-27T20:43:10.211Z,2.80
2023-02-27T20:45:40.172Z,2.80
2023-02-27T20:48:07.198Z,2.80
2023-02-27T20:50:34.933Z,2.70
2023-02-27T20:53:04.790Z,2.70
2023-02-27T20:55:31.728Z,2.60
2023-02-27T20:57:58.675Z,2.60
2023-02-27T21:00:28.254Z,2.50
2023-02-27T21:02:55.091Z,2.50
2023-02-27T21:05:21.904Z,2.50
2023-02-27T21:07:48.755Z,2.40
2023-02-27T21:10:15.419Z,2.40
2023-02-27T21:12:42.252Z,2.40
2023-02-27T21:15:09.395Z,2.40
2023-02-27T21:17:36.107Z,2.40
2023-02-27T21:20:06.751Z,2.40
2023-02-27T21:22:34.531Z,2.40
2023-02-27T21:25:01.171Z,2.40
2023-02-27T21:27:27.878Z,2.40
2023-02-27T21:29:54.679Z,2.40
2023-02-27T21:32:21.306Z,2.30
2023-02-27T21:34:48.026Z,2.40
2023-02-27T21:37:14.717Z,2.30
2023-02-27T21:39:41.430Z,2.30
2023-02-27T21:42:08.192Z,2.30
2023-02-27T21:44:34.915Z,2.20
2023-02-27T21:47:09.857Z,2.20
2023-02-27T21:49:37.166Z,2.10
2023-02-27T21:52:06.210Z,2.10
2023-02-27T21:54:33.039Z,2.10
2023-02-27T21:57:02.400Z,2.00
2023-02-27T21:59:29.721Z,2.00
2023-02-27T22:01:57.001Z,2.00
2023-02-27T22:04:24.216Z,2.00
2023-02-27T22:06:51.483Z,2.00
2023-02-27T22:09:18.801Z,1.90
2023-02-27T22:11:45.753Z,1.90
2023-02-27T22:14:12.627Z,1.90
2023-02-27T22:16:39.968Z,1.90
2023-02-27T22:19:07.563Z,1.90
2023-02-27T22:21:35.008Z,1.90
2023-02-27T22:24:02.348Z,1.90
2023-02-27T22:26:29.203Z,1.90
2023-02-27T22:28:57.030Z,1.90
2023-02-27T22:31:25.251Z,1.90
2023-02-27T22:33:53.939Z,1.80
2023-02-27T22:36:22.276Z,1.80
2023-02-27T22:38:49.092Z,1.80
2023-02-27T22:41:17.294Z,1.80
2023-02-27T22:43:47.603Z,1.80
2023-02-27T22:46:16.925Z,1.70
2023-02-27T22:48:44.029Z,1.70
2023-02-27T22:51:12.960Z,1.70
2023-02-27T22:53:40.206Z,1.70
2023-02-27T22:56:08.126Z,1.70
2023-02-27T22:58:37.269Z,1.60
2023-02-27T23:01:20.920Z,1.60
2023-02-27T23:03:49.138Z,1.60
2023-02-27T23:06:17.773Z,1.60
2023-02-27T23:08:44.467Z,1.60
2023-02-27T23:11:11.937Z,1.50
2023-02-27T23:13:38.740Z,1.50
2023-02-27T23:16:11.445Z,1.50
2023-02-27T23:18:38.812Z,1.40
2023-02-27T23:21:05.529Z,1.40
2023-02-27T23:23:32.352Z,1.40
2023-02-27T23:26:01.837Z,1.40
2023-02-27T23:28:29.287Z,1.40
2023-02-27T23:30:56.282Z,1.40
2023-02-27T23:33:23.080Z,1.30
2023-02-27T23:35:49.718Z,1.30
2023-02-27T23:38:16.817Z,1.30
2023-02-27T23:40:43.454Z,1.30
2023-02-27T23:43:10.178Z,1.20
2023-02-27T23:45:37.318Z,1.20
2023-02-27T23:48:04.111Z,1.20
2023-02-27T23:50:32.357Z,1.10
2023-02-27T23:52:59.576Z,1.10
2023-02-27T23:55:28.650Z,1.10
2023-02-27T23:57:56.431Z,1.00
